createdAt,value
2023-05-21T00:00:23.432Z,1015.99
2023-05-21T00:00:37.420Z,1015.99
2023-05-21T00:00:51.414Z,1015.99
2023-05-21T00:01:05.416Z,1015.99
2023-05-21T00:01:33.378Z,1015.97
2023-05-21T00:01:47.369Z,1015.97
2023-05-21T00:02:01.361Z,1015.97
2023-05-21T00:02:15.363Z,1015.97
2023-05-21T00:02:43.407Z,1015.96
2023-05-21T00:02:57.538Z,1015.96
2023-05-21T00:03:11.729Z,1015.96
2023-05-21T00:03:25.874Z,1015.96
2023-05-21T00:03:54.181Z,1015.97
2023-05-21T00:04:08.280Z,1015.97
2023-05-21T00:04:22.265Z,1015.96
2023-05-21T00:04:36.260Z,1015.96
2023-05-21T00:05:04.252Z,1015.96
2023-05-21T00:05:18.358Z,1015.96
2023-05-21T00:05:32.480Z,1015.96
2023-05-21T00:05:46.559Z,1015.95
2023-05-21T00:06:14.653Z,1015.94
2023-05-21T00:06:28.786Z,1015.94
2023-05-21T00:06:42.808Z,1015.94
2023-05-21T00:06:56.819Z,1015.94
2023-05-21T00:07:24.773Z,1015.94
2023-05-21T00:07:38.757Z,1015.94
2023-05-21T00:07:52.755Z,1015.94
2023-05-21T00:08:07.571Z,1015.94
2023-05-21T00:08:35.532Z,1015.94
2023-05-21T00:08:49.519Z,1015.94
2023-05-21T00:09:03.512Z,1015.93
2023-05-21T00:09:17.489Z,1015.93
2023-05-21T00:09:45.453Z,1015.93
2023-05-21T00:09:59.450Z,1015.93
2023-05-21T00:10:13.454Z,1015.93
2023-05-21T00:10:27.454Z,1015.93
2023-05-21T00:10:55.399Z,1015.93
2023-05-21T00:11:09.411Z,1015.93
2023-05-21T00:11:23.406Z,1015.92
2023-05-21T00:11:37.395Z,1015.91
2023-05-21T00:12:05.352Z,1015.90
2023-05-21T00:12:19.347Z,1015.91
2023-05-21T00:12:33.340Z,1015.90
2023-05-21T00:12:47.334Z,1015.90
2023-05-21T00:13:15.304Z,1015.90
2023-05-21T00:13:29.296Z,1015.89
2023-05-21T00:13:43.303Z,1015.89
2023-05-21T00:13:57.287Z,1015.89
2023-05-21T00:14:25.237Z,1015.89
2023-05-21T00:14:39.229Z,1015.89
2023-05-21T00:14:53.229Z,1015.89
2023-05-21T00:15:07.254Z,1015.88
2023-05-21T00:15:35.398Z,1015.88
2023-05-21T00:15:49.562Z,1015.88
2023-05-21T00:16:03.611Z,1015.87
2023-05-21T00:16:17.663Z,1015.87
2023-05-21T00:16:45.756Z,1015.87
2023-05-21T00:16:59.892Z,1015.87
2023-05-21T00:17:13.895Z,1015.86
2023-05-21T00:17:27.902Z,1015.86
2023-05-21T00:17:55.928Z,1015.86
2023-05-21T00:18:09.975Z,1015.86
2023-05-21T00:18:24.050Z,1015.86
2023-05-21T00:18:38.035Z,1015.85
2023-05-21T00:19:06.010Z,1015.85
2023-05-21T00:19:20.071Z,1015.85
2023-05-21T00:19:34.175Z,1015.84
2023-05-21T00:19:48.183Z,1015.84
2023-05-21T00:20:16.154Z,1015.83
2023-05-21T00:20:30.150Z,1015.84
2023-05-21T00:20:44.142Z,1015.83
2023-05-21T00:20:58.122Z,1015.83
2023-05-21T00:21:26.225Z,1015.82
2023-05-21T00:21:40.365Z,1015.82
2023-05-21T00:21:54.351Z,1015.81
2023-05-21T00:22:08.340Z,1015.81
2023-05-21T00:22:36.359Z,1015.80
2023-05-21T00:22:50.397Z,1015.80
2023-05-21T00:23:04.447Z,1015.79
2023-05-21T00:23:18.444Z,1015.79
2023-05-21T00:23:46.407Z,1015.79
2023-05-21T00:24:00.401Z,1015.79
2023-05-21T00:24:14.396Z,1015.79
2023-05-21T00:24:28.407Z,1015.79
2023-05-21T00:24:56.366Z,1015.80
2023-05-21T00:25:10.409Z,1015.80
2023-05-21T00:25:24.418Z,1015.79
2023-05-21T00:25:38.466Z,1015.79
2023-05-21T00:26:06.470Z,1015.79
2023-05-21T00:26:20.473Z,1015.79
2023-05-21T00:26:34.452Z,1015.79
2023-05-21T00:26:48.455Z,1015.79
2023-05-21T00:27:16.449Z,1015.79
2023-05-21T00:27:30.439Z,1015.79
2023-05-21T00:27:44.446Z,1015.79
2023-05-21T00:27:58.429Z,1015.79
2023-05-21T00:28:26.403Z,1015.79
2023-05-21T00:28:40.399Z,1015.79
2023-05-21T00:28:54.415Z,1015.78
2023-05-21T00:29:08.413Z,1015.79
2023-05-21T00:29:36.393Z,1015.79
2023-05-21T00:29:50.886Z,1015.79
2023-05-21T00:30:04.928Z,1015.79
2023-05-21T00:30:18.906Z,1015.79
2023-05-21T00:30:32.963Z,1015.78
2023-05-21T00:30:46.952Z,1015.78
2023-05-21T00:31:00.922Z,1015.78
2023-05-21T00:31:14.920Z,1015.78
2023-05-21T00:31:29.028Z,1015.78
2023-05-21T00:31:57.089Z,1015.77
2023-05-21T00:32:11.185Z,1015.77
2023-05-21T00:32:25.271Z,1015.77
2023-05-21T00:32:39.289Z,1015.77
2023-05-21T00:33:07.371Z,1015.76
2023-05-21T00:33:21.412Z,1015.76
2023-05-21T00:33:35.432Z,1015.76
2023-05-21T00:33:49.606Z,1015.76
2023-05-21T00:34:17.554Z,1015.76
2023-05-21T00:34:31.565Z,1015.75
2023-05-21T00:34:45.555Z,1015.75
2023-05-21T00:34:59.585Z,1015.75
2023-05-21T00:35:27.541Z,1015.75
2023-05-21T00:35:41.549Z,1015.75
2023-05-21T00:35:55.556Z,1015.75
2023-05-21T00:36:09.547Z,1015.75
2023-05-21T00:36:37.540Z,1015.75
2023-05-21T00:36:51.522Z,1015.75
2023-05-21T00:37:05.522Z,1015.74
2023-05-21T00:37:19.545Z,1015.75
2023-05-21T00:37:47.496Z,1015.74
2023-05-21T00:38:01.488Z,1015.74
2023-05-21T00:38:15.482Z,1015.73
2023-05-21T00:38:29.606Z,1015.73
2023-05-21T00:38:57.565Z,1015.73
2023-05-21T00:39:11.546Z,1015.74
2023-05-21T00:39:25.534Z,1015.74
2023-05-21T00:39:39.522Z,1015.74
2023-05-21T00:40:07.474Z,1015.74
2023-05-21T00:40:21.473Z,1015.74
2023-05-21T00:40:35.461Z,1015.74
2023-05-21T00:40:49.485Z,1015.74
2023-05-21T00:41:17.429Z,1015.74
2023-05-21T00:41:31.416Z,1015.74
2023-05-21T00:41:45.421Z,1015.74
2023-05-21T00:41:59.396Z,1015.74
2023-05-21T00:42:27.429Z,1015.74
2023-05-21T00:42:41.450Z,1015.74
2023-05-21T00:42:55.434Z,1015.74
2023-05-21T00:43:09.425Z,1015.74
2023-05-21T00:43:37.392Z,1015.74
2023-05-21T00:43:51.372Z,1015.74
2023-05-21T00:44:05.388Z,1015.74
2023-05-21T00:44:19.375Z,1015.75
2023-05-21T00:44:47.373Z,1015.76
2023-05-21T00:45:01.391Z,1015.76
2023-05-21T00:45:15.385Z,1015.76
2023-05-21T00:45:29.373Z,1015.77
2023-05-21T00:45:57.599Z,1015.77
2023-05-21T00:46:11.687Z,1015.78
2023-05-21T00:46:25.775Z,1015.78
2023-05-21T00:46:39.854Z,1015.78
2023-05-21T00:47:07.816Z,1015.79
2023-05-21T00:47:21.884Z,1015.79
2023-05-21T00:47:36.043Z,1015.79
2023-05-21T00:47:50.110Z,1015.79
2023-05-21T00:48:18.082Z,1015.79
2023-05-21T00:48:32.078Z,1015.79
2023-05-21T00:48:46.073Z,1015.79
2023-05-21T00:49:00.081Z,1015.79
2023-05-21T00:49:28.108Z,1015.79
2023-05-21T00:49:42.111Z,1015.78
2023-05-21T00:49:56.100Z,1015.79
2023-05-21T00:50:10.161Z,1015.78
2023-05-21T00:50:38.163Z,1015.79
2023-05-21T00:50:52.173Z,1015.79
2023-05-21T00:51:06.181Z,1015.79
2023-05-21T00:51:20.211Z,1015.79
2023-05-21T00:51:48.185Z,1015.79
2023-05-21T00:52:02.170Z,1015.79
2023-05-21T00:52:16.161Z,1015.79
2023-05-21T00:52:30.151Z,1015.79
2023-05-21T00:52:58.103Z,1015.79
2023-05-21T00:53:12.084Z,1015.79
2023-05-21T00:53:26.076Z,1015.78
2023-05-21T00:53:40.064Z,1015.78
2023-05-21T00:54:08.017Z,1015.77
2023-05-21T00:54:22.013Z,1015.77
2023-05-21T00:54:36.009Z,1015.76
2023-05-21T00:54:49.997Z,1015.75
2023-05-21T00:55:17.956Z,1015.75
2023-05-21T00:55:31.954Z,1015.75
2023-05-21T00:55:45.968Z,1015.75
2023-05-21T00:55:59.966Z,1015.75
2023-05-21T00:56:27.975Z,1015.75
2023-05-21T00:56:41.964Z,1015.74
2023-05-21T00:56:55.975Z,1015.74
2023-05-21T00:57:10.049Z,1015.74
2023-05-21T00:57:37.994Z,1015.74
2023-05-21T00:57:51.971Z,1015.74
2023-05-21T00:58:06.044Z,1015.73
2023-05-21T00:58:20.036Z,1015.73
2023-05-21T00:58:48.013Z,1015.73
2023-05-21T00:59:02.010Z,1015.72
2023-05-21T00:59:16.105Z,1015.72
2023-05-21T00:59:30.098Z,1015.72
2023-05-21T00:59:58.080Z,1015.72
2023-05-21T01:00:12.057Z,1015.72
2023-05-21T01:00:26.061Z,1015.72
2023-05-21T01:00:40.039Z,1015.72
2023-05-21T01:01:08.020Z,1015.72
2023-05-21T01:01:22.078Z,1015.72
2023-05-21T01:01:36.144Z,1015.71
2023-05-21T01:01:50.345Z,1015.71
2023-05-21T01:02:18.457Z,1015.71
2023-05-21T01:02:32.585Z,1015.71
2023-05-21T01:02:46.765Z,1015.71
2023-05-21T01:03:00.972Z,1015.71
2023-05-21T01:03:29.174Z,1015.71
2023-05-21T01:03:43.300Z,1015.71
2023-05-21T01:03:57.329Z,1015.71
2023-05-21T01:04:11.317Z,1015.71
2023-05-21T01:04:39.266Z,1015.71
2023-05-21T01:04:53.259Z,1015.71
2023-05-21T01:05:07.295Z,1015.71
2023-05-21T01:05:21.296Z,1015.71
2023-05-21T01:05:49.249Z,1015.71
2023-05-21T01:06:03.241Z,1015.71
2023-05-21T01:06:17.218Z,1015.71
2023-05-21T01:06:31.208Z,1015.71
2023-05-21T01:06:59.174Z,1015.71
2023-05-21T01:07:13.173Z,1015.71
2023-05-21T01:07:27.169Z,1015.71
2023-05-21T01:07:41.188Z,1015.71
2023-05-21T01:08:09.149Z,1015.72
2023-05-21T01:08:23.167Z,1015.72
2023-05-21T01:08:37.158Z,1015.72
2023-05-21T01:08:51.144Z,1015.72
2023-05-21T01:09:19.093Z,1015.72
2023-05-21T01:09:33.096Z,1015.72
2023-05-21T01:09:47.074Z,1015.72
2023-05-21T01:10:01.074Z,1015.72
2023-05-21T01:10:29.071Z,1015.72
2023-05-21T01:10:43.082Z,1015.71
2023-05-21T01:10:57.079Z,1015.71
2023-05-21T01:11:11.093Z,1015.70
2023-05-21T01:11:39.070Z,1015.70
2023-05-21T01:11:53.086Z,1015.69
2023-05-21T01:12:07.072Z,1015.69
2023-05-21T01:12:21.056Z,1015.68
2023-05-21T01:12:49.017Z,1015.67
2023-05-21T01:13:03.005Z,1015.66
2023-05-21T01:13:17.097Z,1015.66
2023-05-21T01:13:31.103Z,1015.66
2023-05-21T01:13:59.060Z,1015.65
2023-05-21T01:14:13.054Z,1015.65
2023-05-21T01:14:27.064Z,1015.65
2023-05-21T01:14:41.051Z,1015.64
2023-05-21T01:15:09.000Z,1015.64
2023-05-21T01:15:23.003Z,1015.64
2023-05-21T01:15:37.231Z,1015.63
2023-05-21T01:15:51.378Z,1015.63
2023-05-21T01:16:19.351Z,1015.63
2023-05-21T01:16:33.374Z,1015.62
2023-05-21T01:16:47.376Z,1015.62
2023-05-21T01:17:01.404Z,1015.63
2023-05-21T01:17:29.406Z,1015.64
2023-05-21T01:17:43.460Z,1015.64
2023-05-21T01:17:57.506Z,1015.64
2023-05-21T01:18:11.550Z,1015.64
2023-05-21T01:18:25.624Z,1015.63
2023-05-21T01:18:39.644Z,1015.63
2023-05-21T01:18:53.745Z,1015.64
2023-05-21T01:19:07.994Z,1015.64
2023-05-21T01:19:22.166Z,1015.64
2023-05-21T01:19:50.211Z,1015.64
2023-05-21T01:20:04.281Z,1015.65
2023-05-21T01:20:18.377Z,1015.64
2023-05-21T01:20:32.433Z,1015.64
2023-05-21T01:21:00.389Z,1015.64
2023-05-21T01:21:14.393Z,1015.64
2023-05-21T01:21:28.388Z,1015.64
2023-05-21T01:21:42.365Z,1015.64
2023-05-21T01:22:10.316Z,1015.63
2023-05-21T01:22:24.342Z,1015.63
2023-05-21T01:22:38.334Z,1015.62
2023-05-21T01:22:52.331Z,1015.62
2023-05-21T01:23:20.285Z,1015.61
2023-05-21T01:23:34.276Z,1015.60
2023-05-21T01:23:48.276Z,1015.60
2023-05-21T01:24:02.260Z,1015.59
2023-05-21T01:24:30.259Z,1015.58
2023-05-21T01:24:44.249Z,1015.57
2023-05-21T01:24:58.253Z,1015.57
2023-05-21T01:25:12.253Z,1015.57
2023-05-21T01:25:40.232Z,1015.56
2023-05-21T01:25:54.209Z,1015.55
2023-05-21T01:26:08.210Z,1015.55
2023-05-21T01:26:22.208Z,1015.55
2023-05-21T01:26:50.191Z,1015.56
2023-05-21T01:27:04.179Z,1015.56
2023-05-21T01:27:18.174Z,1015.55
2023-05-21T01:27:32.155Z,1015.55
2023-05-21T01:28:00.107Z,1015.55
2023-05-21T01:28:14.078Z,1015.55
2023-05-21T01:28:28.081Z,1015.55
2023-05-21T01:28:42.070Z,1015.56
2023-05-21T01:29:10.010Z,1015.55
2023-05-21T01:29:23.987Z,1015.56
2023-05-21T01:29:38.050Z,1015.56
2023-05-21T01:29:52.065Z,1015.56
2023-05-21T01:30:20.043Z,1015.55
2023-05-21T01:30:34.035Z,1015.55
2023-05-21T01:30:48.023Z,1015.55
2023-05-21T01:31:02.300Z,1015.55
2023-05-21T01:31:30.254Z,1015.55
2023-05-21T01:31:44.249Z,1015.55
2023-05-21T01:31:58.259Z,1015.55
2023-05-21T01:32:12.295Z,1015.55
2023-05-21T01:32:40.340Z,1015.55
2023-05-21T01:32:54.405Z,1015.55
2023-05-21T01:33:08.481Z,1015.54
2023-05-21T01:33:22.785Z,1015.55
2023-05-21T01:33:50.878Z,1015.54
2023-05-21T01:34:04.942Z,1015.54
2023-05-21T01:34:19.143Z,1015.54
2023-05-21T01:34:33.128Z,1015.54
2023-05-21T01:35:01.107Z,1015.54
2023-05-21T01:35:15.089Z,1015.54
2023-05-21T01:35:29.089Z,1015.55
2023-05-21T01:35:43.067Z,1015.55
2023-05-21T01:36:11.041Z,1015.54
2023-05-21T01:36:25.052Z,1015.54
2023-05-21T01:36:39.057Z,1015.54
2023-05-21T01:36:53.067Z,1015.54
2023-05-21T01:37:21.044Z,1015.54
2023-05-21T01:37:35.035Z,1015.54
2023-05-21T01:37:49.037Z,1015.54
2023-05-21T01:38:03.031Z,1015.54
2023-05-21T01:38:31.013Z,1015.53
2023-05-21T01:38:45.010Z,1015.53
2023-05-21T01:38:58.991Z,1015.53
2023-05-21T01:39:12.986Z,1015.53
2023-05-21T01:39:40.947Z,1015.53
2023-05-21T01:39:54.933Z,1015.53
2023-05-21T01:40:08.929Z,1015.53
2023-05-21T01:40:22.920Z,1015.53
2023-05-21T01:40:50.879Z,1015.53
2023-05-21T01:41:04.874Z,1015.53
2023-05-21T01:41:18.893Z,1015.53
2023-05-21T01:41:32.882Z,1015.53
2023-05-21T01:42:00.842Z,1015.52
2023-05-21T01:42:14.834Z,1015.53
2023-05-21T01:42:28.827Z,1015.52
2023-05-21T01:42:42.821Z,1015.52
2023-05-21T01:43:10.774Z,1015.52
2023-05-21T01:43:24.768Z,1015.52
2023-05-21T01:43:38.801Z,1015.52
2023-05-21T01:43:52.784Z,1015.52
2023-05-21T01:44:20.768Z,1015.53
2023-05-21T01:44:34.757Z,1015.53
2023-05-21T01:44:48.804Z,1015.53
2023-05-21T01:45:02.804Z,1015.53
2023-05-21T01:45:30.765Z,1015.53
2023-05-21T01:45:44.748Z,1015.53
2023-05-21T01:45:58.805Z,1015.52
2023-05-21T01:46:12.851Z,1015.52
2023-05-21T01:46:40.876Z,1015.52
2023-05-21T01:46:54.967Z,1015.52
2023-05-21T01:47:08.981Z,1015.51
2023-05-21T01:47:23.022Z,1015.51
2023-05-21T01:47:51.066Z,1015.51
2023-05-21T01:48:05.151Z,1015.50
2023-05-21T01:48:19.202Z,1015.50
2023-05-21T01:48:33.204Z,1015.50
2023-05-21T01:48:47.196Z,1015.51
2023-05-21T01:49:01.213Z,1015.51
2023-05-21T01:49:15.216Z,1015.50
2023-05-21T01:49:29.205Z,1015.50
2023-05-21T01:49:43.185Z,1015.51
2023-05-21T01:50:11.182Z,1015.51
2023-05-21T01:50:25.186Z,1015.52
2023-05-21T01:50:39.187Z,1015.52
2023-05-21T01:50:53.184Z,1015.52
2023-05-21T01:51:21.167Z,1015.54
2023-05-21T01:51:35.185Z,1015.54
2023-05-21T01:51:49.193Z,1015.55
2023-05-21T01:52:03.186Z,1015.55
2023-05-21T01:52:31.168Z,1015.57
2023-05-21T01:52:45.281Z,1015.57
2023-05-21T01:52:59.266Z,1015.58
2023-05-21T01:53:13.259Z,1015.58
2023-05-21T01:53:41.218Z,1015.58
2023-05-21T01:53:55.225Z,1015.57
2023-05-21T01:54:09.237Z,1015.57
2023-05-21T01:54:23.235Z,1015.57
2023-05-21T01:54:51.221Z,1015.56
2023-05-21T01:55:05.233Z,1015.56
2023-05-21T01:55:19.232Z,1015.55
2023-05-21T01:55:33.280Z,1015.55
2023-05-21T01:56:01.365Z,1015.53
2023-05-21T01:56:15.352Z,1015.52
2023-05-21T01:56:29.351Z,1015.51
2023-05-21T01:56:43.366Z,1015.50
2023-05-21T01:57:11.344Z,1015.49
2023-05-21T01:57:25.353Z,1015.49
2023-05-21T01:57:39.349Z,1015.48
2023-05-21T01:57:53.353Z,1015.48
2023-05-21T01:58:21.346Z,1015.47
2023-05-21T01:58:35.342Z,1015.47
2023-05-21T01:58:49.330Z,1015.47
2023-05-21T01:59:03.330Z,1015.46
2023-05-21T01:59:31.304Z,1015.46
2023-05-21T01:59:46.088Z,1015.46
2023-05-21T02:00:00.161Z,1015.46
2023-05-21T02:00:14.199Z,1015.46
2023-05-21T02:00:42.175Z,1015.46
2023-05-21T02:00:56.171Z,1015.46
2023-05-21T02:01:10.162Z,1015.47
2023-05-21T02:01:24.192Z,1015.46
2023-05-21T02:01:52.303Z,1015.47
2023-05-21T02:02:06.383Z,1015.47
2023-05-21T02:02:20.414Z,1015.47
2023-05-21T02:02:34.475Z,1015.48
2023-05-21T02:03:02.589Z,1015.48
2023-05-21T02:03:16.789Z,1015.48
2023-05-21T02:03:31.090Z,1015.48
2023-05-21T02:03:45.365Z,1015.48
2023-05-21T02:04:13.415Z,1015.48
2023-05-21T02:04:27.462Z,1015.48
2023-05-21T02:04:41.464Z,1015.48
2023-05-21T02:04:55.450Z,1015.48
2023-05-21T02:05:23.414Z,1015.48
2023-05-21T02:05:37.806Z,1015.47
2023-05-21T02:05:52.248Z,1015.47
2023-05-21T02:06:06.252Z,1015.47
2023-05-21T02:06:34.256Z,1015.47
2023-05-21T02:06:48.279Z,1015.46
2023-05-21T02:07:02.260Z,1015.46
2023-05-21T02:07:16.268Z,1015.46
2023-05-21T02:07:44.251Z,1015.46
2023-05-21T02:07:58.243Z,1015.45
2023-05-21T02:08:12.266Z,1015.45
2023-05-21T02:08:26.239Z,1015.45
2023-05-21T02:08:54.209Z,1015.44
2023-05-21T02:09:08.220Z,1015.44
2023-05-21T02:09:22.193Z,1015.44
2023-05-21T02:09:36.188Z,1015.44
2023-05-21T02:10:04.158Z,1015.44
2023-05-21T02:10:18.161Z,1015.45
2023-05-21T02:10:32.288Z,1015.45
2023-05-21T02:10:46.275Z,1015.45
2023-05-21T02:11:14.226Z,1015.45
2023-05-21T02:11:28.223Z,1015.45
2023-05-21T02:11:42.210Z,1015.46
2023-05-21T02:11:56.206Z,1015.46
2023-05-21T02:12:24.205Z,1015.47
2023-05-21T02:12:38.203Z,1015.48
2023-05-21T02:12:52.200Z,1015.49
2023-05-21T02:13:06.199Z,1015.49
2023-05-21T02:13:34.152Z,1015.50
2023-05-21T02:13:48.185Z,1015.51
2023-05-21T02:14:02.171Z,1015.51
2023-05-21T02:14:16.173Z,1015.52
2023-05-21T02:14:44.124Z,1015.52
2023-05-21T02:14:58.103Z,1015.52
2023-05-21T02:15:12.119Z,1015.52
2023-05-21T02:15:26.106Z,1015.53
2023-05-21T02:15:54.234Z,1015.52
2023-05-21T02:16:08.282Z,1015.52
2023-05-21T02:16:22.402Z,1015.52
2023-05-21T02:16:36.544Z,1015.51
2023-05-21T02:17:04.590Z,1015.51
2023-05-21T02:17:18.606Z,1015.50
2023-05-21T02:17:32.618Z,1015.50
2023-05-21T02:17:46.761Z,1015.49
2023-05-21T02:18:14.829Z,1015.49
2023-05-21T02:18:28.808Z,1015.48
2023-05-21T02:18:42.828Z,1015.48
2023-05-21T02:18:56.855Z,1015.48
2023-05-21T02:19:24.937Z,1015.48
2023-05-21T02:19:38.953Z,1015.48
2023-05-21T02:19:52.950Z,1015.48
2023-05-21T02:20:06.963Z,1015.48
2023-05-21T02:20:34.931Z,1015.49
2023-05-21T02:20:48.932Z,1015.49
2023-05-21T02:21:02.916Z,1015.49
2023-05-21T02:21:16.924Z,1015.49
2023-05-21T02:21:44.897Z,1015.49
2023-05-21T02:21:58.893Z,1015.49
2023-05-21T02:22:12.883Z,1015.49
2023-05-21T02:22:26.863Z,1015.48
2023-05-21T02:22:54.825Z,1015.48
2023-05-21T02:23:08.841Z,1015.48
2023-05-21T02:23:22.845Z,1015.48
2023-05-21T02:23:36.842Z,1015.48
2023-05-21T02:24:04.841Z,1015.47
2023-05-21T02:24:18.827Z,1015.47
2023-05-21T02:24:32.833Z,1015.47
2023-05-21T02:24:46.814Z,1015.47
2023-05-21T02:25:14.782Z,1015.48
2023-05-21T02:25:28.783Z,1015.48
2023-05-21T02:25:42.780Z,1015.48
2023-05-21T02:25:56.782Z,1015.49
2023-05-21T02:26:24.754Z,1015.49
2023-05-21T02:26:38.738Z,1015.49
2023-05-21T02:26:52.739Z,1015.49
2023-05-21T02:27:06.829Z,1015.48
2023-05-21T02:27:34.799Z,1015.48
2023-05-21T02:27:48.793Z,1015.48
2023-05-21T02:28:02.773Z,1015.48
2023-05-21T02:28:16.810Z,1015.48
2023-05-21T02:28:44.797Z,1015.48
2023-05-21T02:28:58.781Z,1015.47
2023-05-21T02:29:12.796Z,1015.48
2023-05-21T02:29:26.807Z,1015.47
2023-05-21T02:29:55.197Z,1015.47
2023-05-21T02:30:09.172Z,1015.47
2023-05-21T02:30:23.198Z,1015.47
2023-05-21T02:30:37.193Z,1015.47
2023-05-21T02:31:05.165Z,1015.48
2023-05-21T02:31:19.171Z,1015.48
2023-05-21T02:31:33.162Z,1015.48
2023-05-21T02:31:47.165Z,1015.49
2023-05-21T02:32:15.142Z,1015.49
2023-05-21T02:32:29.142Z,1015.49
2023-05-21T02:32:43.379Z,1015.50
2023-05-21T02:32:57.453Z,1015.50
2023-05-21T02:33:25.444Z,1015.51
2023-05-21T02:33:39.449Z,1015.52
2023-05-21T02:33:53.500Z,1015.52
2023-05-21T02:34:07.598Z,1015.52
2023-05-21T02:34:35.682Z,1015.51
2023-05-21T02:34:49.714Z,1015.51
2023-05-21T02:35:03.740Z,1015.50
2023-05-21T02:35:17.818Z,1015.50
2023-05-21T02:35:45.827Z,1015.50
2023-05-21T02:35:59.817Z,1015.50
2023-05-21T02:36:13.833Z,1015.49
2023-05-21T02:36:27.816Z,1015.49
2023-05-21T02:36:55.772Z,1015.49
2023-05-21T02:37:09.765Z,1015.48
2023-05-21T02:37:23.745Z,1015.48
2023-05-21T02:37:37.736Z,1015.48
2023-05-21T02:38:05.702Z,1015.47
2023-05-21T02:38:19.692Z,1015.47
2023-05-21T02:38:33.677Z,1015.46
2023-05-21T02:38:47.683Z,1015.46
2023-05-21T02:39:15.677Z,1015.45
2023-05-21T02:39:29.716Z,1015.45
2023-05-21T02:39:43.713Z,1015.44
2023-05-21T02:39:57.702Z,1015.44
2023-05-21T02:40:25.670Z,1015.43
2023-05-21T02:40:39.691Z,1015.43
2023-05-21T02:40:53.750Z,1015.43
2023-05-21T02:41:07.759Z,1015.42
2023-05-21T02:41:35.746Z,1015.42
2023-05-21T02:41:49.737Z,1015.42
2023-05-21T02:42:03.730Z,1015.42
2023-05-21T02:42:17.737Z,1015.42
2023-05-21T02:42:45.705Z,1015.42
2023-05-21T02:42:59.704Z,1015.41
2023-05-21T02:43:16.047Z,1015.41
2023-05-21T02:43:27.712Z,1015.41
2023-05-21T02:43:55.677Z,1015.41
2023-05-21T02:44:09.669Z,1015.40
2023-05-21T02:44:23.665Z,1015.40
2023-05-21T02:44:37.667Z,1015.40
2023-05-21T02:45:05.614Z,1015.40
2023-05-21T02:45:19.584Z,1015.40
2023-05-21T02:45:33.725Z,1015.40
2023-05-21T02:45:47.912Z,1015.39
2023-05-21T02:46:16.024Z,1015.40
2023-05-21T02:46:30.105Z,1015.39
2023-05-21T02:46:44.158Z,1015.39
2023-05-21T02:46:58.145Z,1015.39
2023-05-21T02:47:26.136Z,1015.39
2023-05-21T02:47:40.186Z,1015.39
2023-05-21T02:47:54.233Z,1015.38
2023-05-21T02:48:08.298Z,1015.38
2023-05-21T02:48:36.318Z,1015.37
2023-05-21T02:48:50.302Z,1015.37
2023-05-21T02:49:04.291Z,1015.37
2023-05-21T02:49:18.273Z,1015.37
2023-05-21T02:49:46.238Z,1015.36
2023-05-21T02:50:00.304Z,1015.36
2023-05-21T02:50:14.305Z,1015.35
2023-05-21T02:50:28.295Z,1015.34
2023-05-21T02:50:56.244Z,1015.34
2023-05-21T02:51:10.223Z,1015.33
2023-05-21T02:51:24.242Z,1015.33
2023-05-21T02:51:38.245Z,1015.32
2023-05-21T02:52:06.204Z,1015.32
2023-05-21T02:52:20.192Z,1015.31
2023-05-21T02:52:34.241Z,1015.31
2023-05-21T02:52:48.239Z,1015.30
2023-05-21T02:53:16.298Z,1015.30
2023-05-21T02:53:30.317Z,1015.30
2023-05-21T02:53:44.307Z,1015.30
2023-05-21T02:53:58.308Z,1015.30
2023-05-21T02:54:12.299Z,1015.30
2023-05-21T02:54:26.285Z,1015.30
2023-05-21T02:54:40.277Z,1015.30
2023-05-21T02:54:54.284Z,1015.31
2023-05-21T02:55:08.280Z,1015.31
2023-05-21T02:55:36.443Z,1015.32
2023-05-21T02:55:50.686Z,1015.33
2023-05-21T02:56:04.681Z,1015.33
2023-05-21T02:56:18.694Z,1015.34
2023-05-21T02:56:46.659Z,1015.34
2023-05-21T02:57:00.663Z,1015.35
2023-05-21T02:57:14.649Z,1015.35
2023-05-21T02:57:28.648Z,1015.36
2023-05-21T02:57:56.600Z,1015.36
2023-05-21T02:58:10.586Z,1015.37
2023-05-21T02:58:24.584Z,1015.37
2023-05-21T02:58:38.585Z,1015.38
2023-05-21T02:59:06.562Z,1015.39
2023-05-21T02:59:20.549Z,1015.39
2023-05-21T02:59:34.550Z,1015.39
2023-05-21T02:59:48.548Z,1015.39
2023-05-21T03:00:16.542Z,1015.40
2023-05-21T03:00:30.534Z,1015.40
2023-05-21T03:00:44.556Z,1015.39
2023-05-21T03:00:58.578Z,1015.39
2023-05-21T03:01:26.613Z,1015.39
2023-05-21T03:01:40.645Z,1015.38
2023-05-21T03:01:54.675Z,1015.39
2023-05-21T03:02:08.770Z,1015.38
2023-05-21T03:02:36.930Z,1015.39
2023-05-21T03:02:51.191Z,1015.39
2023-05-21T03:03:05.344Z,1015.38
2023-05-21T03:03:19.537Z,1015.38
2023-05-21T03:03:47.674Z,1015.38
2023-05-21T03:04:01.766Z,1015.38
2023-05-21T03:04:15.757Z,1015.38
2023-05-21T03:04:29.741Z,1015.38
2023-05-21T03:04:57.703Z,1015.37
2023-05-21T03:05:11.711Z,1015.37
2023-05-21T03:05:25.708Z,1015.37
2023-05-21T03:05:39.709Z,1015.36
2023-05-21T03:06:07.695Z,1015.36
2023-05-21T03:06:21.679Z,1015.35
2023-05-21T03:06:35.675Z,1015.34
2023-05-21T03:06:49.652Z,1015.34
2023-05-21T03:07:03.638Z,1015.33
2023-05-21T03:07:17.641Z,1015.33
2023-05-21T03:07:31.653Z,1015.33
2023-05-21T03:07:45.659Z,1015.33
2023-05-21T03:07:59.676Z,1015.32
2023-05-21T03:08:27.644Z,1015.32
2023-05-21T03:08:41.637Z,1015.32
2023-05-21T03:08:55.630Z,1015.33
2023-05-21T03:09:09.650Z,1015.33
2023-05-21T03:09:37.635Z,1015.34
2023-05-21T03:09:51.628Z,1015.35
2023-05-21T03:10:05.618Z,1015.35
2023-05-21T03:10:19.605Z,1015.36
2023-05-21T03:10:47.558Z,1015.37
2023-05-21T03:11:01.551Z,1015.37
2023-05-21T03:11:15.530Z,1015.38
2023-05-21T03:11:29.545Z,1015.38
2023-05-21T03:11:57.526Z,1015.39
2023-05-21T03:12:11.530Z,1015.39
2023-05-21T03:12:25.542Z,1015.39
2023-05-21T03:12:39.519Z,1015.39
2023-05-21T03:13:09.675Z,1015.39
2023-05-21T03:13:21.464Z,1015.39
2023-05-21T03:13:35.509Z,1015.39
2023-05-21T03:13:49.550Z,1015.38
2023-05-21T03:14:17.579Z,1015.38
2023-05-21T03:14:31.569Z,1015.38
2023-05-21T03:14:45.567Z,1015.37
2023-05-21T03:14:59.562Z,1015.37
2023-05-21T03:15:27.519Z,1015.36
2023-05-21T03:15:41.521Z,1015.35
2023-05-21T03:15:55.575Z,1015.34
2023-05-21T03:16:09.578Z,1015.34
2023-05-21T03:16:37.591Z,1015.33
2023-05-21T03:16:51.777Z,1015.33
2023-05-21T03:17:05.983Z,1015.33
2023-05-21T03:17:20.285Z,1015.32
2023-05-21T03:17:48.313Z,1015.31
2023-05-21T03:18:02.362Z,1015.30
2023-05-21T03:18:16.484Z,1015.30
2023-05-21T03:18:30.479Z,1015.29
2023-05-21T03:18:58.469Z,1015.29
2023-05-21T03:19:12.500Z,1015.29
2023-05-21T03:19:26.670Z,1015.29
2023-05-21T03:19:40.765Z,1015.29
2023-05-21T03:20:08.713Z,1015.29
2023-05-21T03:20:22.703Z,1015.29
2023-05-21T03:20:36.679Z,1015.28
2023-05-21T03:20:50.675Z,1015.28
2023-05-21T03:21:18.627Z,1015.29
2023-05-21T03:21:32.616Z,1015.29
2023-05-21T03:21:46.623Z,1015.29
2023-05-21T03:22:00.604Z,1015.29
2023-05-21T03:22:28.570Z,1015.29
2023-05-21T03:22:42.582Z,1015.29
2023-05-21T03:22:56.564Z,1015.29
2023-05-21T03:23:10.573Z,1015.29
2023-05-21T03:23:38.565Z,1015.29
2023-05-21T03:23:52.549Z,1015.29
2023-05-21T03:24:06.538Z,1015.28
2023-05-21T03:24:20.522Z,1015.28
2023-05-21T03:24:48.495Z,1015.28
2023-05-21T03:25:02.486Z,1015.27
2023-05-21T03:25:16.459Z,1015.27
2023-05-21T03:25:30.457Z,1015.27
2023-05-21T03:25:58.408Z,1015.26
2023-05-21T03:26:12.395Z,1015.26
2023-05-21T03:26:26.389Z,1015.25
2023-05-21T03:26:40.406Z,1015.25
2023-05-21T03:27:08.417Z,1015.25
2023-05-21T03:27:22.426Z,1015.26
2023-05-21T03:27:36.452Z,1015.26
2023-05-21T03:27:50.446Z,1015.26
2023-05-21T03:28:18.411Z,1015.27
2023-05-21T03:28:32.404Z,1015.27
2023-05-21T03:28:46.412Z,1015.27
2023-05-21T03:29:00.409Z,1015.27
2023-05-21T03:29:28.363Z,1015.27
2023-05-21T03:29:42.364Z,1015.28
2023-05-21T03:29:56.358Z,1015.29
2023-05-21T03:30:10.357Z,1015.29
2023-05-21T03:30:38.352Z,1015.29